sensor_id;sensor_type;location;lat;lon;timestamp;temperature;humidity
70534;SHT31;58088;51.186;17.130;2023-04-08T00:00:15;7.80;77.61
70534;SHT31;58088;51.186;17.130;2023-04-08T00:02:42;7.79;77.69
70534;SHT31;58088;51.186;17.130;2023-04-08T00:05:08;7.79;77.73
70534;SHT31;58088;51.186;17.130;2023-04-08T00:07:34;7.77;77.78
70534;SHT31;58088;51.186;17.130;2023-04-08T00:10:02;7.74;77.83
70534;SHT31;58088;51.186;17.130;2023-04-08T00:12:28;7.73;77.97
70534;SHT31;58088;51.186;17.130;2023-04-08T00:14:54;7.74;77.91
70534;SHT31;58088;51.186;17.130;2023-04-08T00:17:21;7.73;78.00
70534;SHT31;58088;51.186;17.130;2023-04-08T00:19:47;7.73;78.04
70534;SHT31;58088;51.186;17.130;2023-04-08T00:22:13;7.73;78.09
70534;SHT31;58088;51.186;17.130;2023-04-08T00:24:39;7.73;78.08
70534;SHT31;58088;51.186;17.130;2023-04-08T00:27:05;7.74;78.05
70534;SHT31;58088;51.186;17.130;2023-04-08T00:29:31;7.76;78.04
70534;SHT31;58088;51.186;17.130;2023-04-08T00:31:57;7.75;78.00
70534;SHT31;58088;51.186;17.130;2023-04-08T00:34:24;7.75;78.03
70534;SHT31;58088;51.186;17.130;2023-04-08T00:36:50;7.76;78.03
70534;SHT31;58088;51.186;17.130;2023-04-08T00:39:16;7.76;78.08
70534;SHT31;58088;51.186;17.130;2023-04-08T00:41:42;7.72;78.26
70534;SHT31;58088;51.186;17.130;2023-04-08T00:44:08;7.72;78.30
70534;SHT31;58088;51.186;17.130;2023-04-08T00:46:37;7.74;78.29
70534;SHT31;58088;51.186;17.130;2023-04-08T00:49:05;7.74;78.27
70534;SHT31;58088;51.186;17.130;2023-04-08T00:51:35;7.74;78.31
70534;SHT31;58088;51.186;17.130;2023-04-08T00:54:01;7.75;78.30
70534;SHT31;58088;51.186;17.130;2023-04-08T00:56:30;7.76;78.32
70534;SHT31;58088;51.186;17.130;2023-04-08T00:58:59;7.76;78.44
70534;SHT31;58088;51.186;17.130;2023-04-08T01:06:58;7.80;78.50
70534;SHT31;58088;51.186;17.130;2023-04-08T01:09:38;7.77;78.50
70534;SHT31;58088;51.186;17.130;2023-04-08T01:12:11;7.78;78.50
70534;SHT31;58088;51.186;17.130;2023-04-08T01:14:47;7.82;78.47
70534;SHT31;58088;51.186;17.130;2023-04-08T01:17:17;7.84;78.41
70534;SHT31;58088;51.186;17.130;2023-04-08T01:19:48;7.84;78.38
70534;SHT31;58088;51.186;17.130;2023-04-08T01:25:04;7.84;78.30
70534;SHT31;58088;51.186;17.130;2023-04-08T01:27:37;7.80;78.17
70534;SHT31;58088;51.186;17.130;2023-04-08T01:30:05;7.72;77.96
70534;SHT31;58088;51.186;17.130;2023-04-08T01:32:33;7.61;77.61
70534;SHT31;58088;51.186;17.130;2023-04-08T01:35:01;7.51;77.35
70534;SHT31;58088;51.186;17.130;2023-04-08T01:37:28;7.41;77.28
70534;SHT31;58088;51.186;17.130;2023-04-08T01:39:57;7.37;77.20
70534;SHT31;58088;51.186;17.130;2023-04-08T01:42:27;7.31;77.05
70534;SHT31;58088;51.186;17.130;2023-04-08T01:44:55;7.25;76.88
70534;SHT31;58088;51.186;17.130;2023-04-08T01:47:24;7.17;76.76
70534;SHT31;58088;51.186;17.130;2023-04-08T01:49:51;7.10;76.80
70534;SHT31;58088;51.186;17.130;2023-04-08T01:52:19;7.05;76.68
70534;SHT31;58088;51.186;17.130;2023-04-08T01:54:47;6.97;76.56
70534;SHT31;58088;51.186;17.130;2023-04-08T01:57:16;6.94;76.61
70534;SHT31;58088;51.186;17.130;2023-04-08T01:59:49;6.87;76.51
70534;SHT31;58088;51.186;17.130;2023-04-08T02:02:21;6.80;76.48
70534;SHT31;58088;51.186;17.130;2023-04-08T02:04:52;6.75;76.52
70534;SHT31;58088;51.186;17.130;2023-04-08T02:07:20;6.70;76.52
70534;SHT31;58088;51.186;17.130;2023-04-08T02:09:48;6.66;76.51
70534;SHT31;58088;51.186;17.130;2023-04-08T02:12:16;6.62;76.45
70534;SHT31;58088;51.186;17.130;2023-04-08T02:14:42;6.59;76.40
70534;SHT31;58088;51.186;17.130;2023-04-08T02:17:13;6.54;76.39
70534;SHT31;58088;51.186;17.130;2023-04-08T02:20:06;6.51;76.33
70534;SHT31;58088;51.186;17.130;2023-04-08T02:22:37;6.49;76.35
70534;SHT31;58088;51.186;17.130;2023-04-08T02:25:07;6.49;76.36
70534;SHT31;58088;51.186;17.130;2023-04-08T02:27:42;6.47;76.24
70534;SHT31;58088;51.186;17.130;2023-04-08T02:30:13;6.46;76.20
70534;SHT31;58088;51.186;17.130;2023-04-08T02:32:41;6.46;76.20
70534;SHT31;58088;51.186;17.130;2023-04-08T02:35:10;6.44;76.20
70534;SHT31;58088;51.186;17.130;2023-04-08T02:37:39;6.45;76.14
70534;SHT31;58088;51.186;17.130;2023-04-08T02:42:56;6.45;76.03
70534;SHT31;58088;51.186;17.130;2023-04-08T02:45:32;6.48;75.96
70534;SHT31;58088;51.186;17.130;2023-04-08T02:48:05;6.49;75.89
70534;SHT31;58088;51.186;17.130;2023-04-08T02:50:32;6.47;75.81
70534;SHT31;58088;51.186;17.130;2023-04-08T02:52:58;6.47;75.76
70534;SHT31;58088;51.186;17.130;2023-04-08T02:55:25;6.48;75.69
70534;SHT31;58088;51.186;17.130;2023-04-08T02:57:51;6.45;75.57
70534;SHT31;58088;51.186;17.130;2023-04-08T03:00:17;6.43;75.53
70534;SHT31;58088;51.186;17.130;2023-04-08T03:02:43;6.41;75.51
70534;SHT31;58088;51.186;17.130;2023-04-08T03:05:10;6.39;75.41
70534;SHT31;58088;51.186;17.130;2023-04-08T03:07:36;6.37;75.36
70534;SHT31;58088;51.186;17.130;2023-04-08T03:10:03;6.36;75.28
70534;SHT31;58088;51.186;17.130;2023-04-08T03:12:31;6.37;75.27
70534;SHT31;58088;51.186;17.130;2023-04-08T03:14:57;6.36;75.03
70534;SHT31;58088;51.186;17.130;2023-04-08T03:17:24;6.38;74.99
70534;SHT31;58088;51.186;17.130;2023-04-08T03:19:51;6.39;74.92
70534;SHT31;58088;51.186;17.130;2023-04-08T03:22:17;6.39;74.97
70534;SHT31;58088;51.186;17.130;2023-04-08T03:24:44;6.40;74.97
70534;SHT31;58088;51.186;17.130;2023-04-08T03:27:10;6.40;74.94
70534;SHT31;58088;51.186;17.130;2023-04-08T03:29:37;6.37;74.90
70534;SHT31;58088;51.186;17.130;2023-04-08T03:32:03;6.36;74.85
70534;SHT31;58088;51.186;17.130;2023-04-08T03:34:30;6.38;74.87
70534;SHT31;58088;51.186;17.130;2023-04-08T03:36:56;6.33;74.64
70534;SHT31;58088;51.186;17.130;2023-04-08T03:39:22;6.31;74.53
70534;SHT31;58088;51.186;17.130;2023-04-08T03:41:49;6.32;74.50
70534;SHT31;58088;51.186;17.130;2023-04-08T03:44:15;6.33;74.50
70534;SHT31;58088;51.186;17.130;2023-04-08T03:46:41;6.34;74.52
70534;SHT31;58088;51.186;17.130;2023-04-08T03:49:07;6.36;74.52
70534;SHT31;58088;51.186;17.130;2023-04-08T03:51:34;6.39;74.56
70534;SHT31;58088;51.186;17.130;2023-04-08T03:54:00;6.39;74.53
70534;SHT31;58088;51.186;17.130;2023-04-08T03:56:27;6.39;74.49
70534;SHT31;58088;51.186;17.130;2023-04-08T03:58:53;6.39;74.57
70534;SHT31;58088;51.186;17.130;2023-04-08T04:01:19;6.40;74.60
70534;SHT31;58088;51.186;17.130;2023-04-08T04:03:45;6.41;74.61
70534;SHT31;58088;51.186;17.130;2023-04-08T04:06:12;6.39;74.60
70534;SHT31;58088;51.186;17.130;2023-04-08T04:08:38;6.38;74.59
70534;SHT31;58088;51.186;17.130;2023-04-08T04:11:05;6.36;74.62
70534;SHT31;58088;51.186;17.130;2023-04-08T04:13:34;6.34;74.67
70534;SHT31;58088;51.186;17.130;2023-04-08T04:16:00;6.34;74.76
70534;SHT31;58088;51.186;17.130;2023-04-08T04:18:28;6.35;74.70
70534;SHT31;58088;51.186;17.130;2023-04-08T04:20:54;6.33;74.73
70534;SHT31;58088;51.186;17.130;2023-04-08T04:23:21;6.30;74.65
70534;SHT31;58088;51.186;17.130;2023-04-08T04:25:49;6.29;74.48
70534;SHT31;58088;51.186;17.130;2023-04-08T04:28:15;6.24;74.20
70534;SHT31;58088;51.186;17.130;2023-04-08T04:30:42;6.23;74.17
70534;SHT31;58088;51.186;17.130;2023-04-08T04:33:08;6.22;74.02
70534;SHT31;58088;51.186;17.130;2023-04-08T04:35:35;6.18;73.74
70534;SHT31;58088;51.186;17.130;2023-04-08T04:38:01;6.16;73.66
70534;SHT31;58088;51.186;17.130;2023-04-08T04:40:27;6.13;73.74
70534;SHT31;58088;51.186;17.130;2023-04-08T04:42:53;6.17;73.80
70534;SHT31;58088;51.186;17.130;2023-04-08T04:45:20;6.17;73.80
70534;SHT31;58088;51.186;17.130;2023-04-08T04:47:46;6.13;73.54
70534;SHT31;58088;51.186;17.130;2023-04-08T04:50:12;6.10;73.38
70534;SHT31;58088;51.186;17.130;2023-04-08T04:52:38;6.09;73.34
70534;SHT31;58088;51.186;17.130;2023-04-08T04:55:05;6.13;73.39
70534;SHT31;58088;51.186;17.130;2023-04-08T04:57:32;6.14;73.39
70534;SHT31;58088;51.186;17.130;2023-04-08T04:59:58;6.13;73.42
70534;SHT31;58088;51.186;17.130;2023-04-08T05:02:24;6.15;73.46
70534;SHT31;58088;51.186;17.130;2023-04-08T05:04:51;6.15;73.49
70534;SHT31;58088;51.186;17.130;2023-04-08T05:07:18;6.16;73.56
70534;SHT31;58088;51.186;17.130;2023-04-08T05:09:44;6.15;73.47
70534;SHT31;58088;51.186;17.130;2023-04-08T05:12:10;6.13;73.33
70534;SHT31;58088;51.186;17.130;2023-04-08T05:14:37;6.10;73.32
70534;SHT31;58088;51.186;17.130;2023-04-08T05:17:04;6.08;73.26
70534;SHT31;58088;51.186;17.130;2023-04-08T05:19:31;6.07;73.18
70534;SHT31;58088;51.186;17.130;2023-04-08T05:21:57;6.10;73.09
70534;SHT31;58088;51.186;17.130;2023-04-08T05:24:24;6.12;72.93
70534;SHT31;58088;51.186;17.130;2023-04-08T05:26:51;6.14;72.92
70534;SHT31;58088;51.186;17.130;2023-04-08T05:29:18;6.14;72.99
70534;SHT31;58088;51.186;17.130;2023-04-08T05:31:46;6.15;73.08
70534;SHT31;58088;51.186;17.130;2023-04-08T05:34:12;6.14;73.14
70534;SHT31;58088;51.186;17.130;2023-04-08T05:36:40;6.17;73.21
70534;SHT31;58088;51.186;17.130;2023-04-08T05:39:07;6.17;73.24
70534;SHT31;58088;51.186;17.130;2023-04-08T05:41:34;6.17;73.10
70534;SHT31;58088;51.186;17.130;2023-04-08T05:44:00;6.18;73.16
70534;SHT31;58088;51.186;17.130;2023-04-08T05:46:26;6.19;73.07
70534;SHT31;58088;51.186;17.130;2023-04-08T05:48:52;6.20;73.19
70534;SHT31;58088;51.186;17.130;2023-04-08T05:51:19;6.22;73.20
70534;SHT31;58088;51.186;17.130;2023-04-08T05:53:45;6.23;73.29
70534;SHT31;58088;51.186;17.130;2023-04-08T05:56:11;6.22;73.16
70534;SHT31;58088;51.186;17.130;2023-04-08T05:58:38;6.21;73.10
70534;SHT31;58088;51.186;17.130;2023-04-08T06:01:04;6.22;73.05
70534;SHT31;58088;51.186;17.130;2023-04-08T06:03:31;6.24;72.90
70534;SHT31;58088;51.186;17.130;2023-04-08T06:05:58;6.24;72.84
70534;SHT31;58088;51.186;17.130;2023-04-08T06:08:24;6.26;72.75
70534;SHT31;58088;51.186;17.130;2023-04-08T06:10:50;6.27;72.68
70534;SHT31;58088;51.186;17.130;2023-04-08T06:13:16;6.28;72.58
70534;SHT31;58088;51.186;17.130;2023-04-08T06:15:44;6.29;72.37
70534;SHT31;58088;51.186;17.130;2023-04-08T06:18:11;6.36;72.28
70534;SHT31;58088;51.186;17.130;2023-04-08T06:20:37;6.38;71.66
70534;SHT31;58088;51.186;17.130;2023-04-08T06:23:03;6.40;71.40
70534;SHT31;58088;51.186;17.130;2023-04-08T06:25:29;6.48;71.41
70534;SHT31;58088;51.186;17.130;2023-04-08T06:27:55;6.58;71.21
70534;SHT31;58088;51.186;17.130;2023-04-08T06:30:21;6.65;70.96
70534;SHT31;58088;51.186;17.130;2023-04-08T06:32:47;6.64;70.46
70534;SHT31;58088;51.186;17.130;2023-04-08T06:35:13;6.66;70.11
70534;SHT31;58088;51.186;17.130;2023-04-08T06:37:40;6.83;70.13
70534;SHT31;58088;51.186;17.130;2023-04-08T06:40:06;6.94;69.61
70534;SHT31;58088;51.186;17.130;2023-04-08T06:42:33;6.93;69.34
70534;SHT31;58088;51.186;17.130;2023-04-08T06:45:16;6.97;69.69
70534;SHT31;58088;51.186;17.130;2023-04-08T06:47:42;6.97;69.36
70534;SHT31;58088;51.186;17.130;2023-04-08T06:50:08;6.99;69.36
70534;SHT31;58088;51.186;17.130;2023-04-08T06:52:35;6.98;69.16
70534;SHT31;58088;51.186;17.130;2023-04-08T06:55:01;6.99;69.38
70534;SHT31;58088;51.186;17.130;2023-04-08T06:57:27;7.01;69.68
70534;SHT31;58088;51.186;17.130;2023-04-08T06:59:53;6.99;69.38
70534;SHT31;58088;51.186;17.130;2023-04-08T07:02:20;6.93;69.11
70534;SHT31;58088;51.186;17.130;2023-04-08T07:04:48;6.88;69.06
70534;SHT31;58088;51.186;17.130;2023-04-08T07:07:14;6.86;69.27
70534;SHT31;58088;51.186;17.130;2023-04-08T07:09:40;6.85;69.36
70534;SHT31;58088;51.186;17.130;2023-04-08T07:12:10;6.86;69.58
70534;SHT31;58088;51.186;17.130;2023-04-08T07:14:37;6.90;69.48
70534;SHT31;58088;51.186;17.130;2023-04-08T07:17:03;6.86;69.23
70534;SHT31;58088;51.186;17.130;2023-04-08T07:19:30;6.87;69.33
70534;SHT31;58088;51.186;17.130;2023-04-08T07:21:56;6.89;69.36
70534;SHT31;58088;51.186;17.130;2023-04-08T07:24:23;6.87;69.17
70534;SHT31;58088;51.186;17.130;2023-04-08T07:26:49;6.86;69.10
70534;SHT31;58088;51.186;17.130;2023-04-08T07:29:16;6.91;69.20
70534;SHT31;58088;51.186;17.130;2023-04-08T07:31:42;7.02;69.28
70534;SHT31;58088;51.186;17.130;2023-04-08T07:34:09;7.11;69.16
70534;SHT31;58088;51.186;17.130;2023-04-08T07:36:36;7.12;68.88
70534;SHT31;58088;51.186;17.130;2023-04-08T07:39:02;7.10;68.67
70534;SHT31;58088;51.186;17.130;2023-04-08T07:41:29;7.11;68.46
70534;SHT31;58088;51.186;17.130;2023-04-08T07:43:55;7.17;68.53
70534;SHT31;58088;51.186;17.130;2023-04-08T07:46:21;7.20;68.43
70534;SHT31;58088;51.186;17.130;2023-04-08T07:48:47;7.21;68.40
70534;SHT31;58088;51.186;17.130;2023-04-08T07:51:13;7.23;68.53
70534;SHT31;58088;51.186;17.130;2023-04-08T07:53:40;7.23;68.56
70534;SHT31;58088;51.186;17.130;2023-04-08T07:56:10;7.22;68.70
70534;SHT31;58088;51.186;17.130;2023-04-08T07:58:38;7.21;68.43
70534;SHT31;58088;51.186;17.130;2023-04-08T08:04:00;7.25;68.29
70534;SHT31;58088;51.186;17.130;2023-04-08T08:06:27;7.33;68.44
70534;SHT31;58088;51.186;17.130;2023-04-08T08:08:57;7.41;68.31
70534;SHT31;58088;51.186;17.130;2023-04-08T08:11:23;7.44;68.09
70534;SHT31;58088;51.186;17.130;2023-04-08T08:13:49;7.48;68.09
70534;SHT31;58088;51.186;17.130;2023-04-08T08:16:15;7.51;68.11
70534;SHT31;58088;51.186;17.130;2023-04-08T08:18:41;7.54;68.08
70534;SHT31;58088;51.186;17.130;2023-04-08T08:21:08;7.55;67.85
70534;SHT31;58088;51.186;17.130;2023-04-08T08:23:34;7.57;67.93
70534;SHT31;58088;51.186;17.130;2023-04-08T08:26:02;7.56;67.71
70534;SHT31;58088;51.186;17.130;2023-04-08T08:28:37;7.53;67.64
70534;SHT31;58088;51.186;17.130;2023-04-08T08:31:05;7.57;67.77
70534;SHT31;58088;51.186;17.130;2023-04-08T08:33:32;7.64;67.71
70534;SHT31;58088;51.186;17.130;2023-04-08T08:35:58;7.68;67.47
70534;SHT31;58088;51.186;17.130;2023-04-08T08:38:25;7.68;67.20
70534;SHT31;58088;51.186;17.130;2023-04-08T08:40:53;7.72;67.08
70534;SHT31;58088;51.186;17.130;2023-04-08T08:43:22;7.78;67.17
70534;SHT31;58088;51.186;17.130;2023-04-08T08:45:50;7.85;67.08
70534;SHT31;58088;51.186;17.130;2023-04-08T08:48:16;7.92;66.95
70534;SHT31;58088;51.186;17.130;2023-04-08T08:50:42;7.98;66.83
70534;SHT31;58088;51.186;17.130;2023-04-08T08:53:09;7.99;66.68
70534;SHT31;58088;51.186;17.130;2023-04-08T08:55:35;8.01;66.78
70534;SHT31;58088;51.186;17.130;2023-04-08T08:58:04;8.03;66.75
70534;SHT31;58088;51.186;17.130;2023-04-08T09:00:32;8.08;66.68
70534;SHT31;58088;51.186;17.130;2023-04-08T09:03:14;8.14;66.52
70534;SHT31;58088;51.186;17.130;2023-04-08T09:05:50;8.19;66.34
70534;SHT31;58088;51.186;17.130;2023-04-08T09:08:29;8.24;66.40
70534;SHT31;58088;51.186;17.130;2023-04-08T09:11:11;8.28;66.56
70534;SHT31;58088;51.186;17.130;2023-04-08T09:13:43;8.37;66.35
70534;SHT31;58088;51.186;17.130;2023-04-08T09:16:11;8.42;65.91
70534;SHT31;58088;51.186;17.130;2023-04-08T09:18:43;8.47;65.91
70534;SHT31;58088;51.186;17.130;2023-04-08T09:21:12;8.50;65.89
70534;SHT31;58088;51.186;17.130;2023-04-08T09:23:45;8.55;65.80
70534;SHT31;58088;51.186;17.130;2023-04-08T09:26:17;8.62;65.47
70534;SHT31;58088;51.186;17.130;2023-04-08T09:29:02;8.68;65.08
70534;SHT31;58088;51.186;17.130;2023-04-08T09:34:15;8.83;64.97
70534;SHT31;58088;51.186;17.130;2023-04-08T09:36:44;8.90;65.03
70534;SHT31;58088;51.186;17.130;2023-04-08T09:39:10;8.96;64.70
70534;SHT31;58088;51.186;17.130;2023-04-08T09:41:37;9.02;64.55
70534;SHT31;58088;51.186;17.130;2023-04-08T09:44:07;9.11;64.31
70534;SHT31;58088;51.186;17.130;2023-04-08T09:51:52;9.33;63.99
70534;SHT31;58088;51.186;17.130;2023-04-08T09:57:30;9.53;63.71
70534;SHT31;58088;51.186;17.130;2023-04-08T10:00:09;9.59;63.47
70534;SHT31;58088;51.186;17.130;2023-04-08T10:02:43;9.61;63.01
70534;SHT31;58088;51.186;17.130;2023-04-08T10:05:21;9.67;63.09
70534;SHT31;58088;51.186;17.130;2023-04-08T10:07:50;9.69;63.01
70534;SHT31;58088;51.186;17.130;2023-04-08T10:10:17;9.71;62.85
70534;SHT31;58088;51.186;17.130;2023-04-08T10:12:44;9.69;62.30
70534;SHT31;58088;51.186;17.130;2023-04-08T10:15:30;9.65;62.17
70534;SHT31;58088;51.186;17.130;2023-04-08T10:23:01;9.77;62.12
70534;SHT31;58088;51.186;17.130;2023-04-08T10:30:40;9.71;60.81
70534;SHT31;58088;51.186;17.130;2023-04-08T10:33:16;9.72;60.73
70534;SHT31;58088;51.186;17.130;2023-04-08T10:35:54;9.77;60.73
70534;SHT31;58088;51.186;17.130;2023-04-08T10:38:25;9.84;60.64
70534;SHT31;58088;51.186;17.130;2023-04-08T10:40:51;9.89;60.60
70534;SHT31;58088;51.186;17.130;2023-04-08T10:43:19;9.95;60.43
70534;SHT31;58088;51.186;17.130;2023-04-08T10:45:45;10.04;60.59
70534;SHT31;58088;51.186;17.130;2023-04-08T10:48:18;10.11;60.63
70534;SHT31;58088;51.186;17.130;2023-04-08T10:50:54;10.16;60.44
70534;SHT31;58088;51.186;17.130;2023-04-08T10:56:07;10.40;60.58
70534;SHT31;58088;51.186;17.130;2023-04-08T10:58:49;10.52;60.29
70534;SHT31;58088;51.186;17.130;2023-04-08T11:01:18;10.67;60.27
70534;SHT31;58088;51.186;17.130;2023-04-08T11:03:44;10.80;59.67
70534;SHT31;58088;51.186;17.130;2023-04-08T11:06:11;10.84;59.41
70534;SHT31;58088;51.186;17.130;2023-04-08T11:08:37;10.89;59.30
70534;SHT31;58088;51.186;17.130;2023-04-08T11:11:04;10.93;58.72
70534;SHT31;58088;51.186;17.130;2023-04-08T11:13:35;10.96;58.06
70534;SHT31;58088;51.186;17.130;2023-04-08T11:16:06;11.00;58.08
70534;SHT31;58088;51.186;17.130;2023-04-08T11:18:34;11.03;57.64
70534;SHT31;58088;51.186;17.130;2023-04-08T11:21:08;11.07;57.95
70534;SHT31;58088;51.186;17.130;2023-04-08T11:23:36;11.16;58.07
70534;SHT31;58088;51.186;17.130;2023-04-08T11:26:03;11.24;57.41
70534;SHT31;58088;51.186;17.130;2023-04-08T11:28:29;11.34;57.57
70534;SHT31;58088;51.186;17.130;2023-04-08T11:30:57;11.46;57.41
70534;SHT31;58088;51.186;17.130;2023-04-08T11:33:24;11.61;57.11
70534;SHT31;58088;51.186;17.130;2023-04-08T11:35:54;11.77;56.72
70534;SHT31;58088;51.186;17.130;2023-04-08T11:38:21;11.93;56.51
70534;SHT31;58088;51.186;17.130;2023-04-08T11:40:56;12.10;56.01
70534;SHT31;58088;51.186;17.130;2023-04-08T11:43:24;12.24;55.58
70534;SHT31;58088;51.186;17.130;2023-04-08T11:45:51;12.28;54.83
70534;SHT31;58088;51.186;17.130;2023-04-08T11:48:17;12.31;55.50
70534;SHT31;58088;51.186;17.130;2023-04-08T11:50:43;12.40;55.00
70534;SHT31;58088;51.186;17.130;2023-04-08T11:53:16;12.50;55.06
70534;SHT31;58088;51.186;17.130;2023-04-08T11:55:49;12.62;54.05
70534;SHT31;58088;51.186;17.130;2023-04-08T11:58:16;12.62;54.01
70534;SHT31;58088;51.186;17.130;2023-04-08T12:00:42;12.70;54.39
70534;SHT31;58088;51.186;17.130;2023-04-08T12:03:10;12.76;54.10
70534;SHT31;58088;51.186;17.130;2023-04-08T12:05:37;12.74;53.99
70534;SHT31;58088;51.186;17.130;2023-04-08T12:08:04;12.68;53.81
70534;SHT31;58088;51.186;17.130;2023-04-08T12:10:30;12.58;53.61
70534;SHT31;58088;51.186;17.130;2023-04-08T12:12:56;12.55;53.41
70534;SHT31;58088;51.186;17.130;2023-04-08T12:15:22;12.50;53.54
70534;SHT31;58088;51.186;17.130;2023-04-08T12:17:48;12.43;52.71
70534;SHT31;58088;51.186;17.130;2023-04-08T12:20:14;12.31;52.56
70534;SHT31;58088;51.186;17.130;2023-04-08T12:22:41;12.34;52.98
70534;SHT31;58088;51.186;17.130;2023-04-08T12:25:08;12.33;53.43
70534;SHT31;58088;51.186;17.130;2023-04-08T12:27:34;12.34;53.26
70534;SHT31;58088;51.186;17.130;2023-04-08T12:30:01;12.27;53.21
70534;SHT31;58088;51.186;17.130;2023-04-08T12:32:28;12.21;53.14
70534;SHT31;58088;51.186;17.130;2023-04-08T12:34:54;12.20;52.79
70534;SHT31;58088;51.186;17.130;2023-04-08T12:37:20;12.23;52.72
70534;SHT31;58088;51.186;17.130;2023-04-08T12:39:46;12.35;53.33
70534;SHT31;58088;51.186;17.130;2023-04-08T12:42:13;12.45;52.97
70534;SHT31;58088;51.186;17.130;2023-04-08T12:44:39;12.44;52.76
70534;SHT31;58088;51.186;17.130;2023-04-08T12:47:05;12.42;52.81
70534;SHT31;58088;51.186;17.130;2023-04-08T12:49:31;12.51;52.75
70534;SHT31;58088;51.186;17.130;2023-04-08T12:51:58;12.57;52.37
70534;SHT31;58088;51.186;17.130;2023-04-08T12:54:24;12.60;52.07
70534;SHT31;58088;51.186;17.130;2023-04-08T12:56:50;12.68;51.89
70534;SHT31;58088;51.186;17.130;2023-04-08T12:59:16;12.77;51.73
70534;SHT31;58088;51.186;17.130;2023-04-08T13:01:42;12.83;51.93
70534;SHT31;58088;51.186;17.130;2023-04-08T13:04:08;12.80;51.47
70534;SHT31;58088;51.186;17.130;2023-04-08T13:06:35;12.77;51.45
70534;SHT31;58088;51.186;17.130;2023-04-08T13:09:01;12.81;51.28
70534;SHT31;58088;51.186;17.130;2023-04-08T13:11:27;12.90;51.40
70534;SHT31;58088;51.186;17.130;2023-04-08T13:13:53;13.00;51.31
70534;SHT31;58088;51.186;17.130;2023-04-08T13:16:19;13.13;51.63
70534;SHT31;58088;51.186;17.130;2023-04-08T13:18:46;13.22;51.74
70534;SHT31;58088;51.186;17.130;2023-04-08T13:21:12;13.29;51.99
70534;SHT31;58088;51.186;17.130;2023-04-08T13:23:38;13.26;51.68
70534;SHT31;58088;51.186;17.130;2023-04-08T13:26:04;13.21;51.73
70534;SHT31;58088;51.186;17.130;2023-04-08T13:28:31;13.10;51.72
70534;SHT31;58088;51.186;17.130;2023-04-08T13:30:57;13.03;51.67
70534;SHT31;58088;51.186;17.130;2023-04-08T13:33:23;12.96;51.53
70534;SHT31;58088;51.186;17.130;2023-04-08T13:35:49;12.85;51.43
70534;SHT31;58088;51.186;17.130;2023-04-08T13:38:15;12.81;51.93
70534;SHT31;58088;51.186;17.130;2023-04-08T13:40:41;12.78;51.85
70534;SHT31;58088;51.186;17.130;2023-04-08T13:43:08;12.71;51.44
70534;SHT31;58088;51.186;17.130;2023-04-08T13:45:34;12.64;51.51
70534;SHT31;58088;51.186;17.130;2023-04-08T13:48:00;12.64;52.02
70534;SHT31;58088;51.186;17.130;2023-04-08T13:50:26;12.66;51.85
70534;SHT31;58088;51.186;17.130;2023-04-08T13:52:53;12.68;51.76
70534;SHT31;58088;51.186;17.130;2023-04-08T13:55:19;12.77;52.14
70534;SHT31;58088;51.186;17.130;2023-04-08T13:57:45;12.93;52.75
70534;SHT31;58088;51.186;17.130;2023-04-08T14:00:11;13.06;52.47
70534;SHT31;58088;51.186;17.130;2023-04-08T14:02:40;13.19;52.29
70534;SHT31;58088;51.186;17.130;2023-04-08T14:05:06;13.28;51.94
70534;SHT31;58088;51.186;17.130;2023-04-08T14:07:33;13.17;50.41
70534;SHT31;58088;51.186;17.130;2023-04-08T14:09:59;13.07;50.93
70534;SHT31;58088;51.186;17.130;2023-04-08T14:12:26;13.07;51.28
70534;SHT31;58088;51.186;17.130;2023-04-08T14:14:52;13.09;51.12
70534;SHT31;58088;51.186;17.130;2023-04-08T14:17:19;13.17;50.99
70534;SHT31;58088;51.186;17.130;2023-04-08T14:19:46;13.21;50.49
70534;SHT31;58088;51.186;17.130;2023-04-08T14:22:12;13.27;50.90
70534;SHT31;58088;51.186;17.130;2023-04-08T14:24:39;13.35;50.82
70534;SHT31;58088;51.186;17.130;2023-04-08T14:27:05;13.42;50.34
70534;SHT31;58088;51.186;17.130;2023-04-08T14:29:31;13.48;50.43
70534;SHT31;58088;51.186;17.130;2023-04-08T14:31:57;13.41;50.02
70534;SHT31;58088;51.186;17.130;2023-04-08T14:34:23;13.39;50.20
70534;SHT31;58088;51.186;17.130;2023-04-08T14:36:50;13.36;50.48
70534;SHT31;58088;51.186;17.130;2023-04-08T14:39:16;13.34;50.76
70534;SHT31;58088;51.186;17.130;2023-04-08T14:41:44;13.32;50.47
70534;SHT31;58088;51.186;17.130;2023-04-08T14:44:12;13.27;50.50
70534;SHT31;58088;51.186;17.130;2023-04-08T14:46:38;13.26;50.55
70534;SHT31;58088;51.186;17.130;2023-04-08T14:49:04;13.28;50.82
70534;SHT31;58088;51.186;17.130;2023-04-08T14:51:31;13.32;50.98
70534;SHT31;58088;51.186;17.130;2023-04-08T14:53:57;13.31;50.70
70534;SHT31;58088;51.186;17.130;2023-04-08T14:56:24;13.36;51.25
70534;SHT31;58088;51.186;17.130;2023-04-08T14:58:50;13.42;51.90
70534;SHT31;58088;51.186;17.130;2023-04-08T15:01:16;13.48;51.74
70534;SHT31;58088;51.186;17.130;2023-04-08T15:03:43;13.56;51.22
70534;SHT31;58088;51.186;17.130;2023-04-08T15:06:09;13.60;50.64
70534;SHT31;58088;51.186;17.130;2023-04-08T15:08:35;13.63;50.88
70534;SHT31;58088;51.186;17.130;2023-04-08T15:11:01;13.67;51.10
70534;SHT31;58088;51.186;17.130;2023-04-08T15:13:27;13.69;51.25
70534;SHT31;58088;51.186;17.130;2023-04-08T15:15:54;13.72;51.41
70534;SHT31;58088;51.186;17.130;2023-04-08T15:18:20;13.72;51.49
70534;SHT31;58088;51.186;17.130;2023-04-08T15:20:46;13.77;51.66
70534;SHT31;58088;51.186;17.130;2023-04-08T15:23:12;13.81;52.06
70534;SHT31;58088;51.186;17.130;2023-04-08T15:25:38;13.83;52.13
70534;SHT31;58088;51.186;17.130;2023-04-08T15:28:04;13.84;51.64
70534;SHT31;58088;51.186;17.130;2023-04-08T15:30:31;13.84;51.02
70534;SHT31;58088;51.186;17.130;2023-04-08T15:33:02;13.80;50.70
70534;SHT31;58088;51.186;17.130;2023-04-08T15:35:29;13.71;50.44
70534;SHT31;58088;51.186;17.130;2023-04-08T15:37:55;13.64;51.03
70534;SHT31;58088;51.186;17.130;2023-04-08T15:40:22;13.62;50.92
70534;SHT31;58088;51.186;17.130;2023-04-08T15:42:48;13.62;50.98
70534;SHT31;58088;51.186;17.130;2023-04-08T15:45:14;13.58;50.70
70534;SHT31;58088;51.186;17.130;2023-04-08T15:47:40;13.57;50.72
70534;SHT31;58088;51.186;17.130;2023-04-08T15:50:06;13.59;50.76
70534;SHT31;58088;51.186;17.130;2023-04-08T15:52:34;13.58;51.09
70534;SHT31;58088;51.186;17.130;2023-04-08T15:55:00;13.56;50.79
70534;SHT31;58088;51.186;17.130;2023-04-08T15:57:27;13.53;50.95
70534;SHT31;58088;51.186;17.130;2023-04-08T15:59:55;13.48;51.34
70534;SHT31;58088;51.186;17.130;2023-04-08T16:02:22;13.44;50.97
70534;SHT31;58088;51.186;17.130;2023-04-08T16:04:48;13.42;51.09